createdAt,value
2019-03-01T00:00:03.198Z,10.44
2019-03-01T00:01:03.242Z,10.47
2019-03-01T00:02:03.299Z,10.44
2019-03-01T00:03:03.323Z,10.48
2019-03-01T00:04:03.354Z,10.47
2019-03-01T00:05:03.393Z,10.47
2019-03-01T00:06:03.442Z,10.44
2019-03-01T00:07:03.493Z,10.51
2019-03-01T00:08:03.512Z,10.48
2019-03-01T00:09:03.552Z,10.48
2019-03-01T00:10:03.594Z,10.45
2019-03-01T00:11:03.630Z,10.48
2019-03-01T00:12:03.671Z,10.59
2019-03-01T00:13:03.710Z,10.55
2019-03-01T00:14:03.750Z,10.45
2019-03-01T00:15:03.788Z,10.42
2019-03-01T00:16:03.835Z,10.48
2019-03-01T00:17:03.870Z,10.53
2019-03-01T00:18:03.924Z,10.41
2019-03-01T00:19:03.948Z,10.44
2019-03-01T00:20:03.991Z,10.34
2019-03-01T00:21:04.027Z,10.34
2019-03-01T00:22:04.065Z,10.36
2019-03-01T00:23:04.107Z,10.40
2019-03-01T00:24:04.145Z,10.29
2019-03-01T00:25:04.184Z,10.33
2019-03-01T00:26:04.226Z,10.40
2019-03-01T00:27:04.262Z,10.30
2019-03-01T00:28:04.303Z,10.30
2019-03-01T00:29:04.346Z,10.30
2019-03-01T00:30:04.382Z,10.20
2019-03-01T00:31:04.420Z,10.32
2019-03-01T00:32:04.463Z,10.26
2019-03-01T00:33:04.505Z,10.30
2019-03-01T00:34:04.540Z,10.27
2019-03-01T00:35:04.577Z,10.26
2019-03-01T00:36:04.617Z,10.23
2019-03-01T00:37:04.665Z,10.27
2019-03-01T00:38:04.705Z,10.27
2019-03-01T00:39:04.734Z,10.18
2019-03-01T00:40:04.773Z,10.34
2019-03-01T00:41:04.823Z,10.22
2019-03-01T00:42:04.855Z,10.23
2019-03-01T00:43:04.896Z,10.33
2019-03-01T00:44:04.933Z,10.32
2019-03-01T00:45:04.980Z,10.32
2019-03-01T00:46:05.012Z,10.22
2019-03-01T00:47:05.052Z,10.25
2019-03-01T00:48:05.091Z,10.23
2019-03-01T00:49:05.129Z,10.25
2019-03-01T00:50:05.171Z,10.22
2019-03-01T00:51:05.208Z,10.26
2019-03-01T00:52:05.249Z,10.29
2019-03-01T00:53:05.287Z,10.33
2019-03-01T00:54:05.326Z,10.27
2019-03-01T00:55:05.375Z,10.23
2019-03-01T00:56:05.406Z,10.26
2019-03-01T00:57:05.445Z,10.40
2019-03-01T00:58:05.485Z,10.34
2019-03-01T00:59:05.525Z,10.44
2019-03-01T01:00:05.565Z,10.41
2019-03-01T01:01:05.603Z,10.38
2019-03-01T01:02:05.643Z,10.34
2019-03-01T01:03:05.681Z,10.48
2019-03-01T01:04:05.721Z,10.42
2019-03-01T01:05:05.761Z,10.42
2019-03-01T01:06:05.801Z,10.45
2019-03-01T01:07:05.840Z,10.44
2019-03-01T01:08:05.880Z,10.38
2019-03-01T01:09:05.920Z,10.47
2019-03-01T01:10:05.962Z,10.53
2019-03-01T01:11:06.000Z,10.48
2019-03-01T01:12:06.037Z,10.44
2019-03-01T01:13:06.077Z,10.53
2019-03-01T01:14:06.116Z,10.38
2019-03-01T01:15:06.155Z,10.41
2019-03-01T01:16:06.195Z,10.38
2019-03-01T01:17:06.236Z,10.41
2019-03-01T01:18:06.275Z,10.45
2019-03-01T01:19:06.318Z,10.38
2019-03-01T01:20:06.356Z,10.34
2019-03-01T01:21:06.394Z,10.38
2019-03-01T01:22:06.433Z,10.41
2019-03-01T01:23:06.473Z,10.29
2019-03-01T01:24:06.521Z,10.36
2019-03-01T01:25:06.563Z,10.38
2019-03-01T01:26:06.593Z,10.32
2019-03-01T01:27:06.632Z,10.29
2019-03-01T01:28:06.669Z,10.29
2019-03-01T01:29:06.712Z,10.27
2019-03-01T01:30:06.749Z,10.27
2019-03-01T01:31:06.787Z,10.23
2019-03-01T01:32:06.826Z,10.22
2019-03-01T01:33:06.867Z,10.34
2019-03-01T01:34:06.911Z,10.32
2019-03-01T01:35:06.946Z,10.32
2019-03-01T01:36:06.986Z,10.23
2019-03-01T01:37:07.025Z,10.29
2019-03-01T01:38:07.065Z,10.33
2019-03-01T01:39:07.104Z,10.30
2019-03-01T01:40:07.152Z,10.26
2019-03-01T01:41:07.187Z,10.29
2019-03-01T01:42:07.228Z,10.15
2019-03-01T01:43:07.265Z,10.29
2019-03-01T01:44:07.302Z,10.27
2019-03-01T01:45:07.343Z,10.18
2019-03-01T01:46:07.381Z,10.22
2019-03-01T01:47:07.420Z,10.25
2019-03-01T01:48:07.458Z,10.22
2019-03-01T01:49:07.499Z,10.32
2019-03-01T01:50:07.538Z,10.18
2019-03-01T01:51:07.579Z,10.23
2019-03-01T01:52:07.619Z,10.22
2019-03-01T01:53:07.657Z,10.23
2019-03-01T01:54:07.699Z,10.25
2019-03-01T01:55:07.736Z,10.17
2019-03-01T01:56:07.781Z,10.18
2019-03-01T01:57:07.814Z,10.20
2019-03-01T01:58:07.860Z,10.18
2019-03-01T01:59:07.895Z,10.20
2019-03-01T02:00:07.932Z,10.23
2019-03-01T02:01:07.973Z,10.17
2019-03-01T02:02:08.013Z,10.26
2019-03-01T02:03:08.052Z,10.22
2019-03-01T02:04:08.093Z,10.26
2019-03-01T02:05:08.133Z,10.17
2019-03-01T02:06:08.179Z,10.22
2019-03-01T02:07:08.208Z,10.20
2019-03-01T02:08:08.252Z,10.23
2019-03-01T02:09:08.293Z,10.23
2019-03-01T02:10:08.330Z,10.22
2019-03-01T02:11:08.368Z,10.32
2019-03-01T02:12:08.414Z,10.30
2019-03-01T02:13:08.450Z,10.25
2019-03-01T02:14:08.486Z,10.33
2019-03-01T02:15:08.527Z,10.22
2019-03-01T02:16:08.564Z,10.22
2019-03-01T02:17:08.605Z,10.23
2019-03-01T02:18:08.651Z,10.29
2019-03-01T02:19:08.683Z,10.32
2019-03-01T02:20:08.728Z,10.22
2019-03-01T02:21:08.765Z,10.18
2019-03-01T02:22:08.803Z,10.23
2019-03-01T02:23:08.840Z,10.34
2019-03-01T02:24:08.887Z,10.34
2019-03-01T02:25:08.920Z,10.32
2019-03-01T02:26:08.961Z,10.22
2019-03-01T02:27:09.009Z,10.22
2019-03-01T02:28:09.041Z,10.22
2019-03-01T02:29:09.078Z,10.23
2019-03-01T02:30:09.131Z,10.25
2019-03-01T02:31:09.155Z,10.22
2019-03-01T02:32:09.195Z,10.18
2019-03-01T02:33:09.235Z,10.14
2019-03-01T02:34:09.278Z,10.08
2019-03-01T02:35:09.325Z,10.11
2019-03-01T02:36:09.406Z,10.08
2019-03-01T02:37:09.395Z,10.02
2019-03-01T02:38:09.436Z,10.05
2019-03-01T02:39:09.472Z,9.96
2019-03-01T02:40:09.511Z,9.96
2019-03-01T02:41:09.558Z,9.93
2019-03-01T02:42:09.591Z,10.04
2019-03-01T02:43:09.629Z,9.93
2019-03-01T02:44:09.670Z,9.93
2019-03-01T02:45:09.739Z,9.97
2019-03-01T02:46:09.751Z,9.93
2019-03-01T02:47:09.787Z,9.99
2019-03-01T02:48:09.826Z,9.97
2019-03-01T02:49:09.872Z,9.94
2019-03-01T02:50:09.912Z,9.97
2019-03-01T02:51:09.963Z,9.99
2019-03-01T02:52:09.985Z,9.90
2019-03-01T02:53:10.031Z,9.93
2019-03-01T02:54:10.066Z,9.97
2019-03-01T02:55:10.104Z,9.97
2019-03-01T02:56:10.142Z,9.87
2019-03-01T02:57:10.180Z,9.94
2019-03-01T02:58:10.249Z,9.87
2019-03-01T02:59:10.261Z,9.91
2019-03-01T03:00:10.302Z,9.90
2019-03-01T03:01:10.347Z,9.94
2019-03-01T03:02:10.378Z,9.94
2019-03-01T03:03:10.417Z,9.94
2019-03-01T03:04:10.457Z,9.90
2019-03-01T03:05:10.506Z,9.96
2019-03-01T03:06:10.537Z,9.91
2019-03-01T03:07:10.573Z,9.97
2019-03-01T03:08:10.615Z,9.97
2019-03-01T03:09:10.652Z,9.96
2019-03-01T03:10:10.693Z,9.93
2019-03-01T03:11:10.740Z,9.93
2019-03-01T03:12:10.771Z,9.91
2019-03-01T03:13:10.810Z,9.87
2019-03-01T03:14:10.857Z,9.94
2019-03-01T03:15:10.891Z,9.89
2019-03-01T03:16:10.937Z,9.87
2019-03-01T03:17:10.969Z,9.89
2019-03-01T03:18:11.014Z,9.91
2019-03-01T03:19:11.046Z,9.90
2019-03-01T03:20:11.093Z,9.87
2019-03-01T03:21:11.136Z,9.89
2019-03-01T03:22:11.165Z,9.91
2019-03-01T03:23:11.204Z,9.86
2019-03-01T03:24:11.269Z,9.78
2019-03-01T03:25:11.288Z,9.75
2019-03-01T03:26:11.331Z,9.86
2019-03-01T03:27:11.371Z,9.89
2019-03-01T03:28:11.429Z,9.81
2019-03-01T03:29:11.511Z,9.87
2019-03-01T03:30:11.483Z,9.84
2019-03-01T03:31:11.519Z,9.87
2019-03-01T03:32:11.567Z,9.89
2019-03-01T03:33:11.607Z,9.81
2019-03-01T03:34:11.648Z,9.76
2019-03-01T03:35:11.685Z,9.84
2019-03-01T03:36:11.721Z,9.83
2019-03-01T03:37:11.752Z,9.83
2019-03-01T03:38:11.791Z,9.81
2019-03-01T03:39:11.831Z,9.83
2019-03-01T03:40:11.869Z,9.90
2019-03-01T03:41:11.912Z,9.87
2019-03-01T03:42:11.950Z,9.87
2019-03-01T03:43:11.991Z,9.91
2019-03-01T03:44:12.035Z,9.86
2019-03-01T03:45:12.072Z,9.87
2019-03-01T03:46:12.106Z,9.91
2019-03-01T03:47:12.146Z,9.86
2019-03-01T03:48:12.194Z,9.94
2019-03-01T03:49:12.326Z,9.75
2019-03-01T03:50:12.263Z,9.69
2019-03-01T03:51:12.307Z,9.78
2019-03-01T03:52:12.341Z,9.86
2019-03-01T03:53:12.381Z,9.75
2019-03-01T03:54:12.421Z,9.78
2019-03-01T03:55:12.460Z,9.75
2019-03-01T03:56:12.501Z,9.74
2019-03-01T03:57:12.538Z,9.60
2019-03-01T03:58:12.578Z,9.61
2019-03-01T03:59:12.626Z,9.64
2019-03-01T04:00:12.656Z,9.61
2019-03-01T04:01:12.698Z,9.53
2019-03-01T04:02:12.737Z,9.53
2019-03-01T04:03:12.773Z,9.56
2019-03-01T04:04:12.812Z,9.53
2019-03-01T04:05:12.859Z,9.51
2019-03-01T04:06:12.891Z,9.56
2019-03-01T04:07:12.930Z,9.56
2019-03-01T04:08:12.973Z,9.54
2019-03-01T04:09:13.010Z,9.48
2019-03-01T04:10:13.056Z,9.53
2019-03-01T04:11:13.113Z,9.54
2019-03-01T04:12:13.124Z,9.54
2019-03-01T04:13:13.168Z,9.57
2019-03-01T04:14:13.208Z,9.57
2019-03-01T04:15:13.245Z,9.56
2019-03-01T04:16:13.283Z,9.53
2019-03-01T04:17:13.329Z,9.51
2019-03-01T04:18:13.367Z,9.53
2019-03-01T04:19:13.407Z,9.47
2019-03-01T04:20:13.439Z,9.46
2019-03-01T04:21:13.481Z,9.53
2019-03-01T04:22:13.518Z,9.46
2019-03-01T04:23:13.557Z,9.54
2019-03-01T04:24:13.607Z,9.57
2019-03-01T04:25:13.638Z,9.58
2019-03-01T04:26:13.672Z,9.50
2019-03-01T04:27:13.711Z,9.51
2019-03-01T04:28:13.751Z,9.56
2019-03-01T04:29:13.790Z,9.56
2019-03-01T04:30:13.829Z,9.56
2019-03-01T04:31:13.865Z,9.51
2019-03-01T04:32:13.905Z,9.56
2019-03-01T04:33:13.944Z,9.54
2019-03-01T04:34:13.984Z,9.64
2019-03-01T04:35:14.022Z,9.56
2019-03-01T04:36:14.161Z,9.53
2019-03-01T04:37:14.108Z,9.54
2019-03-01T04:38:14.139Z,9.61
2019-03-01T04:39:14.178Z,9.58
2019-03-01T04:40:14.217Z,9.64
2019-03-01T04:41:14.257Z,9.66
2019-03-01T04:42:14.295Z,9.68
2019-03-01T04:43:14.341Z,9.65
2019-03-01T04:44:14.372Z,9.66
2019-03-01T04:45:14.423Z,9.61
2019-03-01T04:46:14.449Z,9.61
2019-03-01T04:47:14.488Z,9.66
2019-03-01T04:48:14.534Z,9.64
2019-03-01T04:49:14.567Z,9.66
2019-03-01T04:50:14.615Z,9.65
2019-03-01T04:51:14.645Z,9.69
2019-03-01T04:52:14.687Z,9.60
2019-03-01T04:53:14.724Z,9.60
2019-03-01T04:54:14.763Z,9.60
2019-03-01T04:55:14.819Z,9.72
2019-03-01T04:56:14.844Z,9.61
2019-03-01T04:57:14.880Z,9.61
2019-03-01T04:58:14.942Z,9.64
2019-03-01T04:59:14.958Z,9.65
2019-03-01T05:00:14.996Z,9.65
2019-03-01T05:01:15.037Z,9.57
2019-03-01T05:02:15.076Z,9.50
2019-03-01T05:03:15.114Z,9.61
2019-03-01T05:04:15.160Z,9.56
2019-03-01T05:05:15.205Z,9.54
2019-03-01T05:06:15.231Z,9.53
2019-03-01T05:07:15.269Z,9.53
2019-03-01T05:08:15.310Z,9.56
2019-03-01T05:09:15.348Z,9.58
2019-03-01T05:10:15.393Z,9.51
2019-03-01T05:11:15.429Z,9.53
2019-03-01T05:12:15.467Z,9.53
2019-03-01T05:13:15.506Z,9.53
2019-03-01T05:14:15.544Z,9.54
2019-03-01T05:15:15.585Z,9.54
2019-03-01T05:16:15.622Z,9.56
2019-03-01T05:17:15.663Z,9.58
2019-03-01T05:18:15.700Z,9.56
2019-03-01T05:19:15.739Z,9.56
2019-03-01T05:20:15.782Z,9.60
2019-03-01T05:21:15.819Z,9.58
2019-03-01T05:22:15.859Z,9.58
2019-03-01T05:23:15.897Z,9.40
2019-03-01T05:24:15.936Z,9.57
2019-03-01T05:25:15.983Z,9.40
2019-03-01T05:26:16.013Z,9.53
2019-03-01T05:27:16.053Z,9.58
2019-03-01T05:28:16.090Z,9.57
2019-03-01T05:29:16.141Z,9.57
2019-03-01T05:30:16.170Z,9.54
2019-03-01T05:31:16.210Z,9.57
2019-03-01T05:32:16.249Z,9.56
2019-03-01T05:33:16.284Z,9.56
2019-03-01T05:34:16.327Z,9.50
2019-03-01T05:35:16.392Z,9.54
2019-03-01T05:36:16.402Z,9.53
2019-03-01T05:37:16.440Z,9.60
2019-03-01T05:38:21.700Z,9.43
2019-03-01T05:39:16.518Z,9.50
2019-03-01T05:40:16.560Z,9.47
2019-03-01T05:41:16.596Z,9.33
2019-03-01T05:42:16.634Z,9.46
2019-03-01T05:43:16.674Z,9.36
2019-03-01T05:44:16.716Z,9.20
2019-03-01T05:45:16.753Z,9.33
2019-03-01T05:46:16.792Z,9.38
2019-03-01T05:47:16.829Z,9.33
2019-03-01T05:48:16.869Z,9.35
2019-03-01T05:49:16.908Z,9.33
2019-03-01T05:50:16.950Z,9.24
2019-03-01T05:51:16.984Z,9.28
2019-03-01T05:52:17.024Z,9.26
2019-03-01T05:53:17.062Z,9.28
2019-03-01T05:54:17.102Z,9.26
2019-03-01T05:55:17.140Z,9.32
2019-03-01T05:56:17.178Z,9.39
2019-03-01T05:57:17.218Z,9.39
2019-03-01T05:58:17.258Z,9.35
2019-03-01T05:59:17.295Z,9.36
2019-03-01T06:00:17.334Z,9.46
2019-03-01T06:01:17.377Z,9.38
2019-03-01T06:02:17.413Z,9.46
2019-03-01T06:03:17.451Z,9.42
2019-03-01T06:04:17.487Z,9.50
2019-03-01T06:05:17.529Z,9.43
2019-03-01T06:06:17.569Z,9.40
2019-03-01T06:07:17.604Z,9.39
2019-03-01T06:08:17.697Z,9.38
2019-03-01T06:09:17.681Z,9.33
2019-03-01T06:10:17.721Z,9.36
2019-03-01T06:11:17.764Z,9.38
2019-03-01T06:12:17.799Z,9.36
2019-03-01T06:13:17.837Z,9.43
2019-03-01T06:14:17.878Z,9.50
2019-03-01T06:15:17.914Z,9.43
2019-03-01T06:16:17.955Z,9.36
2019-03-01T06:17:18.000Z,9.39
2019-03-01T06:18:18.032Z,9.39
2019-03-01T06:19:18.070Z,9.47
2019-03-01T06:20:18.114Z,9.35
2019-03-01T06:21:18.148Z,9.57
2019-03-01T06:22:18.186Z,9.50
2019-03-01T06:23:18.226Z,9.56
2019-03-01T06:24:18.264Z,9.56
2019-03-01T06:25:18.303Z,9.57
2019-03-01T06:26:18.346Z,9.53
2019-03-01T06:27:18.381Z,9.51
2019-03-01T06:28:18.419Z,9.53
2019-03-01T06:29:18.458Z,9.56
2019-03-01T06:30:18.497Z,9.54
2019-03-01T06:31:18.543Z,9.54
2019-03-01T06:32:18.573Z,9.50
2019-03-01T06:33:18.613Z,9.56
2019-03-01T06:34:18.652Z,9.61
2019-03-01T06:35:18.689Z,9.54
2019-03-01T06:36:19.523Z,9.69
2019-03-01T06:37:18.782Z,9.65
2019-03-01T06:38:18.810Z,9.66
2019-03-01T06:39:18.845Z,9.65
2019-03-01T06:40:18.883Z,9.61
2019-03-01T06:41:18.926Z,9.65
2019-03-01T06:42:18.974Z,9.79
2019-03-01T06:43:18.998Z,9.75
2019-03-01T06:44:19.050Z,9.78
2019-03-01T06:45:19.089Z,9.76
2019-03-01T06:46:19.117Z,9.75
2019-03-01T06:47:19.156Z,9.79
2019-03-01T06:48:19.197Z,9.84
2019-03-01T06:49:19.235Z,9.90
2019-03-01T06:50:19.277Z,9.93
2019-03-01T06:51:28.383Z,9.91
2019-03-01T06:52:19.354Z,9.93
2019-03-01T06:53:19.392Z,9.94
2019-03-01T06:54:19.431Z,9.91
2019-03-01T06:55:19.477Z,9.97
2019-03-01T06:56:19.511Z,9.93
2019-03-01T06:57:19.555Z,9.99
2019-03-01T06:58:19.587Z,9.94
2019-03-01T06:59:19.630Z,9.96
2019-03-01T07:00:19.671Z,9.97
2019-03-01T07:01:19.721Z,9.96
2019-03-01T07:02:19.848Z,9.96
2019-03-01T07:03:19.783Z,10.05
2019-03-01T07:04:19.825Z,9.93
2019-03-01T07:05:19.861Z,9.94
2019-03-01T07:06:19.914Z,9.94
2019-03-01T07:07:19.938Z,9.94
2019-03-01T07:08:19.977Z,10.02
2019-03-01T07:09:20.025Z,10.09
2019-03-01T07:10:20.062Z,10.05
2019-03-01T07:11:20.095Z,10.07
2019-03-01T07:12:20.145Z,10.09
2019-03-01T07:13:20.172Z,10.17
2019-03-01T07:14:20.229Z,10.23
2019-03-01T07:15:20.251Z,10.26
2019-03-01T07:16:20.290Z,10.15
2019-03-01T07:17:20.330Z,10.23
2019-03-01T07:18:20.371Z,10.20
2019-03-01T07:19:20.408Z,10.20
2019-03-01T07:20:20.458Z,10.18
2019-03-01T07:21:20.487Z,10.20
2019-03-01T07:22:20.528Z,10.18
2019-03-01T07:23:20.572Z,10.18
2019-03-01T07:24:20.740Z,10.23
2019-03-01T07:25:20.645Z,10.30
2019-03-01T07:26:20.686Z,10.32
2019-03-01T07:27:20.724Z,10.30
2019-03-01T07:28:20.769Z,10.29
2019-03-01T07:29:20.804Z,10.40
2019-03-01T07:30:20.854Z,10.38
2019-03-01T07:31:20.882Z,10.40
2019-03-01T07:32:20.961Z,10.34
2019-03-01T07:33:20.974Z,10.38
2019-03-01T07:34:21.001Z,10.44
2019-03-01T07:35:21.042Z,10.42
2019-03-01T07:36:21.075Z,10.41
2019-03-01T07:37:21.978Z,10.44
2019-03-01T07:38:21.156Z,10.52
2019-03-01T07:39:21.192Z,10.51
2019-03-01T07:40:21.238Z,10.51
2019-03-01T07:41:21.282Z,10.52
2019-03-01T07:42:21.313Z,10.52
2019-03-01T07:43:21.350Z,10.53
2019-03-01T07:44:21.392Z,10.59
2019-03-01T07:45:21.431Z,10.51
2019-03-01T07:46:21.479Z,10.61
2019-03-01T07:47:21.514Z,10.53
2019-03-01T07:48:21.548Z,10.59
2019-03-01T07:49:21.648Z,10.52
2019-03-01T07:50:21.638Z,10.60
2019-03-01T07:51:21.665Z,10.63
2019-03-01T07:52:21.704Z,10.66
2019-03-01T07:53:21.745Z,10.67
2019-03-01T07:54:22.466Z,10.67
2019-03-01T07:55:24.902Z,10.66
2019-03-01T07:56:21.862Z,10.61
2019-03-01T07:57:21.903Z,10.66
2019-03-01T07:58:25.721Z,10.70
2019-03-01T07:59:23.937Z,10.79
2019-03-01T08:00:22.029Z,10.81
2019-03-01T08:01:22.063Z,10.84
2019-03-01T08:02:22.111Z,10.73
2019-03-01T08:03:22.141Z,10.86
2019-03-01T08:04:23.756Z,10.76
2019-03-01T08:05:22.226Z,10.81
2019-03-01T08:06:22.267Z,10.85
2019-03-01T08:07:23.616Z,10.76
2019-03-01T08:08:22.346Z,10.74
2019-03-01T08:09:22.377Z,10.84
2019-03-01T08:10:23.089Z,10.88
2019-03-01T08:11:22.457Z,10.79
2019-03-01T08:12:22.503Z,10.88
2019-03-01T08:13:22.540Z,10.81
2019-03-01T08:14:24.606Z,10.88
2019-03-01T08:15:22.615Z,10.99
2019-03-01T08:16:25.032Z,11.14
2019-03-01T08:17:22.701Z,11.18
2019-03-01T08:18:22.736Z,11.35
2019-03-01T08:19:23.649Z,11.32
2019-03-01T08:20:22.819Z,11.35
2019-03-01T08:21:22.855Z,11.33
2019-03-01T08:22:25.015Z,11.33
2019-03-01T08:23:22.937Z,11.24
2019-03-01T08:24:22.973Z,11.18
2019-03-01T08:25:24.640Z,11.19
2019-03-01T08:26:23.056Z,11.22
2019-03-01T08:27:25.163Z,11.28
2019-03-01T08:28:23.239Z,11.33
2019-03-01T08:29:23.174Z,11.36
2019-03-01T08:30:23.234Z,11.46
2019-03-01T08:31:23.266Z,11.33
2019-03-01T08:32:23.300Z,11.36
2019-03-01T08:33:23.342Z,11.33
2019-03-01T08:34:23.374Z,11.32
2019-03-01T08:35:25.311Z,11.36
2019-03-01T08:36:23.453Z,11.44
2019-03-01T08:37:23.491Z,11.35
2019-03-01T08:38:25.534Z,11.33
2019-03-01T08:39:23.573Z,11.39
2019-03-01T08:40:23.612Z,11.46
2019-03-01T08:41:24.962Z,11.49
2019-03-01T08:42:23.692Z,11.61
2019-03-01T08:43:23.732Z,11.64
2019-03-01T08:44:24.219Z,11.70
2019-03-01T08:45:23.814Z,11.75
2019-03-01T08:46:23.860Z,11.78
2019-03-01T08:47:24.673Z,11.88
2019-03-01T08:48:23.931Z,11.95
2019-03-01T08:49:23.974Z,12.17
2019-03-01T08:50:24.013Z,12.23
2019-03-01T08:51:26.544Z,12.31
2019-03-01T08:52:24.092Z,12.34
2019-03-01T08:53:24.133Z,12.37
2019-03-01T08:54:26.362Z,12.42
2019-03-01T08:55:24.212Z,12.41
2019-03-01T08:56:26.272Z,12.54
2019-03-01T08:57:26.601Z,12.49
2019-03-01T08:58:24.337Z,12.37
2019-03-01T08:59:24.399Z,12.41
2019-03-01T09:00:27.010Z,12.41
2019-03-01T09:01:24.461Z,12.42
2019-03-01T09:02:24.502Z,12.39
2019-03-01T09:03:24.539Z,12.37
2019-03-01T09:04:24.582Z,12.32
2019-03-01T09:05:24.629Z,12.24
2019-03-01T09:06:24.762Z,12.28
2019-03-01T09:07:27.148Z,12.28
2019-03-01T09:08:26.366Z,12.27
2019-03-01T09:09:24.993Z,12.28
2019-03-01T09:10:24.822Z,12.37
2019-03-01T09:11:24.863Z,12.45
2019-03-01T09:12:26.932Z,12.45
2019-03-01T09:13:24.951Z,12.47
2019-03-01T09:14:26.252Z,12.57
2019-03-01T09:15:25.033Z,12.52
2019-03-01T09:16:25.071Z,12.53
2019-03-01T09:17:25.107Z,12.50
2019-03-01T09:18:25.149Z,12.37
2019-03-01T09:19:26.098Z,12.50
2019-03-01T09:20:25.231Z,12.50
2019-03-01T09:21:25.270Z,12.54
2019-03-01T09:22:28.074Z,12.54
2019-03-01T09:23:27.412Z,12.60
2019-03-01T09:24:25.626Z,12.67
2019-03-01T09:25:25.433Z,12.70
2019-03-01T09:26:25.476Z,12.75
2019-03-01T09:27:26.784Z,12.82
2019-03-01T09:28:25.556Z,12.82
2019-03-01T09:29:25.598Z,12.85
2019-03-01T09:30:25.639Z,12.78
2019-03-01T09:31:25.683Z,12.82
2019-03-01T09:32:25.722Z,12.82
2019-03-01T09:33:25.766Z,12.82
2019-03-01T09:34:28.621Z,12.90
2019-03-01T09:35:25.841Z,12.93
2019-03-01T09:36:25.883Z,13.05
2019-03-01T09:37:25.929Z,13.19
2019-03-01T09:38:25.964Z,13.20
2019-03-01T09:39:26.013Z,13.20
2019-03-01T09:40:29.023Z,13.29
2019-03-01T09:41:26.110Z,13.29
2019-03-01T09:42:26.128Z,13.36
2019-03-01T09:43:27.842Z,13.33
2019-03-01T09:44:26.209Z,13.32
2019-03-01T09:45:35.614Z,13.30
2019-03-01T09:46:28.259Z,13.44
2019-03-01T09:47:26.336Z,13.36
2019-03-01T09:48:26.374Z,13.30
2019-03-01T09:49:26.416Z,13.25
2019-03-01T09:50:26.458Z,13.28
2019-03-01T09:51:26.504Z,13.23
2019-03-01T09:52:26.543Z,13.23
2019-03-01T09:53:26.658Z,13.19
2019-03-01T09:54:26.622Z,13.26
2019-03-01T09:55:26.669Z,13.29
2019-03-01T09:56:26.707Z,13.19
2019-03-01T09:57:26.747Z,13.25
2019-03-01T09:58:26.788Z,13.15
2019-03-01T09:59:26.829Z,13.23
2019-03-01T10:00:26.878Z,13.15
2019-03-01T10:01:26.911Z,13.15
2019-03-01T10:02:26.953Z,13.11
2019-03-01T10:03:27.003Z,13.04
2019-03-01T10:04:27.038Z,13.03
2019-03-01T10:05:27.092Z,12.95
2019-03-01T10:06:27.148Z,12.96
2019-03-01T10:07:27.168Z,13.00
2019-03-01T10:08:27.201Z,13.11
2019-03-01T10:09:27.242Z,13.14
2019-03-01T10:10:27.347Z,13.03
2019-03-01T10:11:27.324Z,13.03
2019-03-01T10:12:27.366Z,13.04
2019-03-01T10:13:27.418Z,12.96
2019-03-01T10:14:27.457Z,13.00
2019-03-01T10:15:27.496Z,13.01
2019-03-01T10:16:27.532Z,13.01
2019-03-01T10:17:27.585Z,13.05
2019-03-01T10:18:27.615Z,13.14
2019-03-01T10:19:27.656Z,13.20
2019-03-01T10:20:27.697Z,13.10
2019-03-01T10:21:27.738Z,13.15
2019-03-01T10:22:27.789Z,13.15
2019-03-01T10:23:27.827Z,13.12
2019-03-01T10:24:27.865Z,13.08
2019-03-01T10:25:27.905Z,13.15
2019-03-01T10:26:27.956Z,13.01
2019-03-01T10:27:27.989Z,13.03
2019-03-01T10:28:28.030Z,13.10
2019-03-01T10:29:28.071Z,13.15
2019-03-01T10:30:28.110Z,13.25
2019-03-01T10:31:28.152Z,13.36
2019-03-01T10:32:28.211Z,13.44
2019-03-01T10:33:28.236Z,13.59
2019-03-01T10:34:28.278Z,13.64
2019-03-01T10:35:28.316Z,13.70
2019-03-01T10:36:28.360Z,13.69
2019-03-01T10:37:28.403Z,13.81
2019-03-01T10:38:28.443Z,13.87
2019-03-01T10:39:28.482Z,14.00
2019-03-01T10:40:28.526Z,14.04
2019-03-01T10:41:28.569Z,14.17
2019-03-01T10:42:28.609Z,14.18
2019-03-01T10:43:28.751Z,14.24
2019-03-01T10:44:28.694Z,14.35
2019-03-01T10:45:28.734Z,14.42
2019-03-01T10:46:28.776Z,14.47
2019-03-01T10:47:28.825Z,14.54
2019-03-01T10:48:28.862Z,14.68
2019-03-01T10:49:28.902Z,14.68
2019-03-01T10:50:28.955Z,14.70
2019-03-01T10:51:28.986Z,14.72
2019-03-01T10:52:29.030Z,14.68
2019-03-01T10:53:29.072Z,14.61
2019-03-01T10:54:29.114Z,14.45
2019-03-01T10:55:29.156Z,14.32
2019-03-01T10:56:29.199Z,14.04
2019-03-01T10:57:29.394Z,13.89
2019-03-01T10:58:29.286Z,13.81
2019-03-01T10:59:29.324Z,13.64
2019-03-01T11:00:29.368Z,13.63
2019-03-01T11:01:29.411Z,13.41
2019-03-01T11:02:29.457Z,13.32
2019-03-01T11:03:29.494Z,13.20
2019-03-01T11:04:29.536Z,13.14
2019-03-01T11:05:29.582Z,13.10
2019-03-01T11:06:29.624Z,13.15
2019-03-01T11:07:29.662Z,13.01
2019-03-01T11:08:29.704Z,13.05
2019-03-01T11:09:29.746Z,13.00
2019-03-01T11:10:29.793Z,12.90
2019-03-01T11:11:29.831Z,13.00
2019-03-01T11:12:29.870Z,13.00
2019-03-01T11:13:29.911Z,13.00
2019-03-01T11:14:29.953Z,12.96
2019-03-01T11:15:29.995Z,13.01
2019-03-01T11:16:30.037Z,13.10
2019-03-01T11:17:30.080Z,13.11
2019-03-01T11:18:30.122Z,13.22
2019-03-01T11:19:30.160Z,13.15
2019-03-01T11:20:30.204Z,13.17
2019-03-01T11:21:30.252Z,13.12
2019-03-01T11:22:30.285Z,13.14
2019-03-01T11:23:30.327Z,13.14
2019-03-01T11:24:30.368Z,13.17
2019-03-01T11:25:30.413Z,13.22
2019-03-01T11:26:30.455Z,13.20
2019-03-01T11:27:30.505Z,13.15
2019-03-01T11:28:30.535Z,13.14
2019-03-01T11:29:30.588Z,13.17
2019-03-01T11:30:30.628Z,13.04
2019-03-01T11:31:30.659Z,13.14
2019-03-01T11:32:30.701Z,13.12
2019-03-01T11:33:30.742Z,13.17
2019-03-01T11:34:30.785Z,13.25
2019-03-01T11:35:30.826Z,13.30
2019-03-01T11:36:30.865Z,13.42
2019-03-01T11:37:30.908Z,13.48
2019-03-01T11:38:30.949Z,13.64
2019-03-01T11:39:30.996Z,13.64
2019-03-01T11:40:31.035Z,13.71
2019-03-01T11:41:31.076Z,13.81
2019-03-01T11:42:31.116Z,13.91
2019-03-01T11:43:31.157Z,13.99
2019-03-01T11:44:31.200Z,13.96
2019-03-01T11:45:31.242Z,14.18
2019-03-01T11:46:31.288Z,14.24
2019-03-01T11:47:31.329Z,14.35
2019-03-01T11:48:31.396Z,14.43
2019-03-01T11:49:31.512Z,14.40
2019-03-01T11:50:31.463Z,14.36
2019-03-01T11:51:31.511Z,14.33
2019-03-01T11:52:31.535Z,14.27
2019-03-01T11:53:31.576Z,14.21
2019-03-01T11:54:31.620Z,14.21
2019-03-01T11:55:31.662Z,14.27
2019-03-01T11:56:31.703Z,14.36
2019-03-01T11:57:31.759Z,14.39
2019-03-01T11:58:31.788Z,14.55
2019-03-01T11:59:31.829Z,14.57
2019-03-01T12:00:31.871Z,14.54
2019-03-01T12:01:31.922Z,14.55
2019-03-01T12:02:31.956Z,14.40
2019-03-01T12:03:32.007Z,14.40
2019-03-01T12:04:32.040Z,14.29
2019-03-01T12:05:32.080Z,14.15
2019-03-01T12:06:32.125Z,14.06
2019-03-01T12:07:32.165Z,14.03
2019-03-01T12:08:32.213Z,13.97
2019-03-01T12:09:32.251Z,13.89
2019-03-01T12:10:32.299Z,13.89
2019-03-01T12:11:32.336Z,13.89
2019-03-01T12:12:32.379Z,13.87
2019-03-01T12:13:32.429Z,13.79
2019-03-01T12:14:32.464Z,13.69
2019-03-01T12:15:32.510Z,13.67
2019-03-01T12:16:32.569Z,13.55
2019-03-01T12:17:32.587Z,13.48
2019-03-01T12:18:32.637Z,13.48
2019-03-01T12:19:32.671Z,13.48
2019-03-01T12:20:32.721Z,13.33
2019-03-01T12:21:32.758Z,13.51
2019-03-01T12:22:32.800Z,13.60
2019-03-01T12:23:32.840Z,13.75
2019-03-01T12:24:32.934Z,13.82
2019-03-01T12:25:32.929Z,14.03
2019-03-01T12:26:32.974Z,14.06
2019-03-01T12:27:33.059Z,14.20
2019-03-01T12:28:33.053Z,14.27
2019-03-01T12:29:33.095Z,14.21
2019-03-01T12:30:33.132Z,14.24
2019-03-01T12:31:33.176Z,14.18
2019-03-01T12:32:33.216Z,14.17
2019-03-01T12:33:33.281Z,14.22
2019-03-01T12:34:33.301Z,14.14
2019-03-01T12:35:33.343Z,14.24
2019-03-01T12:36:33.388Z,14.17
2019-03-01T12:37:33.428Z,14.27
2019-03-01T12:38:33.576Z,14.20
2019-03-01T12:39:33.508Z,14.24
2019-03-01T12:40:33.557Z,14.17
2019-03-01T12:41:33.601Z,14.29
2019-03-01T12:42:33.643Z,14.35
2019-03-01T12:43:33.688Z,14.35
2019-03-01T12:44:33.790Z,14.22
2019-03-01T12:45:33.771Z,14.17
2019-03-01T12:46:33.811Z,14.37
2019-03-01T12:47:33.856Z,14.45
2019-03-01T12:48:33.890Z,14.42
2019-03-01T12:49:33.937Z,14.55
2019-03-01T12:50:33.971Z,14.50
2019-03-01T12:51:34.023Z,14.55
2019-03-01T12:52:34.061Z,14.61
2019-03-01T12:53:34.099Z,14.58
2019-03-01T12:54:34.148Z,14.54
2019-03-01T12:55:34.185Z,14.65
2019-03-01T12:56:34.223Z,14.65
2019-03-01T12:57:34.270Z,14.68
2019-03-01T12:58:34.314Z,14.65
2019-03-01T12:59:34.351Z,14.77
2019-03-01T13:00:34.395Z,14.65
2019-03-01T13:01:34.437Z,14.80